Alpha, Ohio
Current Conditions -  °F | °C
As of 9:58 AM on Saturday 20 Dec 2014 (Local Time) from KFFO Reporting Station
Overcast Overcast  
Wind Chill: 30°   Ceiling: 1800
Heat Index: 30°   Visibility: 10mi
Dew Point: 24°   Wind: 3mph
Humidity: 78%   Direction: 40°NE
Pressure: 30.29"   Gusts: NA
Location:  39.71°N, 84.02°W
Report Text: KFFO 201458Z 04003KT 10SM OVC018 M01/M05 A3029 RMK AO2A SLP270 T10131047 51005
Loading
Personal Weather Stations






























Interactive Weather Map New forecast layout! Learn more

10-Day Weather Forecast

Advertisements
Track Severe Weather on mobile